createdAt,value
2022-08-26T00:02:54.351Z,92.54
2022-08-26T00:07:57.208Z,92.77
2022-08-26T00:12:59.521Z,92.69
2022-08-26T00:18:01.858Z,92.68
2022-08-26T00:23:04.926Z,92.93
2022-08-26T00:28:07.870Z,93.12
2022-08-26T00:33:13.518Z,93.71
2022-08-26T00:38:15.891Z,94.04
2022-08-26T00:43:18.846Z,93.71
2022-08-26T00:48:24.245Z,93.41
2022-08-26T00:53:30.394Z,93.03
2022-08-26T00:58:36.689Z,92.61
2022-08-26T01:03:40.158Z,92.58
2022-08-26T01:08:42.566Z,92.83
2022-08-26T01:13:46.370Z,93.38
2022-08-26T01:18:48.777Z,93.57
2022-08-26T01:23:51.689Z,93.95
2022-08-26T01:29:01.209Z,94.11
2022-08-26T01:34:03.481Z,94.10
2022-08-26T01:39:07.230Z,94.25
2022-08-26T01:44:13.994Z,93.99
2022-08-26T01:49:16.360Z,94.19
2022-08-26T01:54:20.534Z,94.17
2022-08-26T01:59:25.510Z,94.33
2022-08-26T02:04:32.041Z,94.47
2022-08-26T02:09:41.093Z,94.80
2022-08-26T02:14:49.958Z,94.48
2022-08-26T02:19:53.674Z,94.50
2022-08-26T02:24:57.633Z,94.38
2022-08-26T02:30:02.599Z,94.36
2022-08-26T02:35:05.269Z,94.07
2022-08-26T02:40:08.902Z,93.96
2022-08-26T02:45:11.292Z,94.69
2022-08-26T02:50:14.563Z,95.52
2022-08-26T02:55:19.083Z,95.40
2022-08-26T03:00:21.585Z,95.83
2022-08-26T03:05:26.370Z,95.64
2022-08-26T03:10:29.208Z,95.83
2022-08-26T03:15:32.264Z,95.52
2022-08-26T03:20:34.971Z,94.98
2022-08-26T03:25:37.558Z,94.74
2022-08-26T03:30:44.936Z,95.54
2022-08-26T03:35:50.762Z,95.90
2022-08-26T03:40:53.274Z,95.63
2022-08-26T03:45:55.558Z,95.32
2022-08-26T03:50:58.700Z,95.45
2022-08-26T03:56:01.175Z,96.02
2022-08-26T04:01:03.991Z,96.51
2022-08-26T04:06:06.912Z,96.38
2022-08-26T04:11:09.240Z,96.18
2022-08-26T04:16:13.234Z,96.19
2022-08-26T04:21:16.607Z,95.79
2022-08-26T04:26:20.401Z,95.04
2022-08-26T04:31:22.772Z,94.90
2022-08-26T04:36:25.877Z,95.02
2022-08-26T04:41:28.597Z,95.10
2022-08-26T04:46:34.558Z,94.89
2022-08-26T04:51:37.607Z,93.62
2022-08-26T04:56:42.039Z,93.58
2022-08-26T05:01:46.783Z,93.77
2022-08-26T05:06:50.890Z,93.47
2022-08-26T05:11:54.490Z,92.49
2022-08-26T05:16:56.965Z,92.07
2022-08-26T05:21:59.521Z,92.43
2022-08-26T05:27:02.980Z,92.75
2022-08-26T05:32:11.247Z,92.51
2022-08-26T05:37:13.715Z,91.26
2022-08-26T05:42:16.082Z,90.14
2022-08-26T05:47:18.745Z,88.66
2022-08-26T05:52:21.844Z,87.50
2022-08-26T05:57:29.719Z,85.81
2022-08-26T06:02:32.094Z,83.24
2022-08-26T06:07:37.478Z,81.51
2022-08-26T06:12:42.666Z,79.36
2022-08-26T06:17:46.686Z,77.45
2022-08-26T06:22:52.152Z,76.12
2022-08-26T06:27:54.663Z,73.93
2022-08-26T06:32:57.065Z,73.43
2022-08-26T06:38:00.219Z,73.24
2022-08-26T06:43:02.838Z,72.77
2022-08-26T06:48:06.545Z,71.43
2022-08-26T06:53:10.081Z,71.46
2022-08-26T06:58:13.939Z,71.31
2022-08-26T07:03:16.267Z,70.72
2022-08-26T07:08:18.805Z,70.75
2022-08-26T07:13:30.524Z,69.34
2022-08-26T07:18:34.550Z,66.97
2022-08-26T07:23:37.353Z,65.17
2022-08-26T07:28:44.031Z,63.29
2022-08-26T07:33:46.391Z,63.17
2022-08-26T07:38:49.066Z,62.38
2022-08-26T07:43:52.023Z,61.57
2022-08-26T07:48:54.422Z,60.93
2022-08-26T07:53:58.316Z,59.98
2022-08-26T07:59:00.683Z,59.83
2022-08-26T08:04:04.531Z,59.93
2022-08-26T08:09:06.933Z,59.50
2022-08-26T08:14:11.797Z,59.78
2022-08-26T08:19:15.091Z,59.85
2022-08-26T08:24:17.393Z,60.20
2022-08-26T08:29:20.024Z,60.18
2022-08-26T08:34:22.605Z,60.17
2022-08-26T08:39:26.193Z,58.13
2022-08-26T08:44:28.614Z,56.88
2022-08-26T08:49:32.213Z,55.73
2022-08-26T08:54:34.620Z,55.24
2022-08-26T08:59:58.825Z,54.88
2022-08-26T09:05:02.937Z,51.87
2022-08-26T09:10:17.252Z,52.34
2022-08-26T09:15:24.634Z,52.68
2022-08-26T09:20:32.712Z,51.43
2022-08-26T09:25:44.605Z,51.48
2022-08-26T09:30:58.343Z,50.81
2022-08-26T09:36:23.013Z,50.37
2022-08-26T09:41:31.701Z,48.94
2022-08-26T09:46:34.509Z,47.98
2022-08-26T09:51:37.427Z,45.98
2022-08-26T09:56:39.958Z,44.51
2022-08-26T10:01:43.377Z,45.20
2022-08-26T10:06:49.120Z,44.85
2022-08-26T10:11:55.532Z,43.38
2022-08-26T10:16:59.711Z,43.06
2022-08-26T10:22:18.232Z,42.64
2022-08-26T10:27:20.662Z,41.93
2022-08-26T10:32:25.958Z,41.62
2022-08-26T10:37:34.795Z,41.22
2022-08-26T10:42:42.493Z,39.93
2022-08-26T10:47:48.531Z,38.26
2022-08-26T10:52:52.629Z,38.81
2022-08-26T10:57:59.269Z,39.39
2022-08-26T11:03:22.633Z,39.22
2022-08-26T11:08:28.401Z,39.85
2022-08-26T11:13:33.651Z,39.98
2022-08-26T11:18:37.966Z,39.79
2022-08-26T11:23:50.268Z,38.68
2022-08-26T11:28:55.906Z,39.42
2022-08-26T11:33:59.786Z,39.72
2022-08-26T11:39:04.093Z,40.43
2022-08-26T11:44:09.379Z,40.26
2022-08-26T11:49:12.843Z,41.12
2022-08-26T11:54:17.515Z,40.36
2022-08-26T12:04:41.001Z,38.34
2022-08-26T12:09:46.321Z,38.62
2022-08-26T12:14:48.893Z,37.81
2022-08-26T12:19:51.195Z,36.56
2022-08-26T12:24:56.771Z,35.45
2022-08-26T12:30:02.567Z,35.26
2022-08-26T12:35:08.769Z,33.76
2022-08-26T12:40:14.134Z,33.98
2022-08-26T12:45:27.721Z,34.83
2022-08-26T12:50:32.455Z,34.37
2022-08-26T12:55:35.901Z,34.37
2022-08-26T13:00:40.660Z,34.89
2022-08-26T13:05:44.298Z,34.58
2022-08-26T13:10:47.497Z,34.03
2022-08-26T13:15:50.294Z,34.20
2022-08-26T13:20:52.718Z,34.64
2022-08-26T13:25:55.072Z,34.04
2022-08-26T13:30:58.308Z,33.59
2022-08-26T13:36:00.754Z,32.36
2022-08-26T13:41:03.464Z,32.76
2022-08-26T13:46:05.881Z,30.22
2022-08-26T13:51:08.956Z,28.78
2022-08-26T13:56:11.667Z,27.72
2022-08-26T14:01:15.522Z,27.77
2022-08-26T14:06:18.635Z,27.41
2022-08-26T14:11:21.364Z,28.75
2022-08-26T14:16:27.011Z,29.55
2022-08-26T14:21:30.975Z,30.18
2022-08-26T14:26:34.191Z,30.80
2022-08-26T14:31:37.732Z,31.76
2022-08-26T14:36:40.159Z,32.39
2022-08-26T14:41:45.148Z,32.68
2022-08-26T14:46:56.788Z,31.51
2022-08-26T14:51:59.604Z,29.89
2022-08-26T14:57:03.674Z,28.37
2022-08-26T15:02:07.336Z,26.60
2022-08-26T15:07:09.842Z,26.50
2022-08-26T15:12:16.177Z,26.43
2022-08-26T15:17:18.513Z,25.20
2022-08-26T15:22:21.192Z,24.16
2022-08-26T15:27:23.776Z,23.76
2022-08-26T15:32:26.135Z,23.54
2022-08-26T15:37:28.477Z,23.42
2022-08-26T15:42:30.845Z,23.24
2022-08-26T15:47:33.633Z,22.56
2022-08-26T15:52:56.143Z,22.84
2022-08-26T15:57:58.496Z,22.72
2022-08-26T16:03:00.875Z,22.41
2022-08-26T16:08:06.082Z,22.36
2022-08-26T16:13:10.445Z,22.64
2022-08-26T16:18:15.460Z,23.76
2022-08-26T16:23:18.724Z,24.94
2022-08-26T16:28:26.239Z,26.89
2022-08-26T16:33:29.853Z,28.72
2022-08-26T16:38:32.466Z,30.28
2022-08-26T16:43:34.884Z,32.37
2022-08-26T16:48:37.223Z,33.74
2022-08-26T16:53:39.682Z,35.30
2022-08-26T16:58:42.194Z,37.08
2022-08-26T17:03:44.626Z,38.84
2022-08-26T17:08:47.512Z,40.21
2022-08-26T17:13:49.852Z,41.17
2022-08-26T17:18:52.196Z,43.14
2022-08-26T17:23:55.046Z,44.21
2022-08-26T17:28:57.744Z,44.77
2022-08-26T17:34:00.481Z,47.85
2022-08-26T17:39:03.735Z,49.88
2022-08-26T17:44:06.528Z,50.90
2022-08-26T17:49:09.849Z,51.45
2022-08-26T17:54:12.335Z,51.75
2022-08-26T17:59:14.684Z,51.27
2022-08-26T18:04:17.487Z,50.52
2022-08-26T18:09:19.880Z,49.78
2022-08-26T18:14:22.213Z,49.89
2022-08-26T18:19:24.495Z,50.04
2022-08-26T18:24:30.155Z,50.28
2022-08-26T18:29:32.629Z,50.63
2022-08-26T18:34:35.737Z,51.13
2022-08-26T18:39:38.027Z,51.82
2022-08-26T18:44:40.337Z,53.47
2022-08-26T18:49:42.646Z,54.86
2022-08-26T18:54:44.951Z,54.08
2022-08-26T18:59:47.277Z,53.57
2022-08-26T19:04:51.709Z,54.12
2022-08-26T19:09:54.277Z,55.40
2022-08-26T19:14:56.775Z,56.46
2022-08-26T19:20:00.079Z,57.05
2022-08-26T19:25:02.478Z,57.71
2022-08-26T19:30:06.060Z,58.32
2022-08-26T19:35:08.923Z,58.71
2022-08-26T19:40:11.358Z,59.14
2022-08-26T19:45:24.281Z,59.53
2022-08-26T19:50:28.922Z,59.86
2022-08-26T19:55:31.286Z,60.08
2022-08-26T20:00:35.623Z,60.22
2022-08-26T20:05:39.033Z,60.28
2022-08-26T20:10:41.478Z,60.94
2022-08-26T20:15:46.045Z,61.11
2022-08-26T20:20:51.315Z,61.43
2022-08-26T20:25:57.307Z,61.73
2022-08-26T20:30:59.837Z,62.00
2022-08-26T20:36:02.934Z,62.44
2022-08-26T20:41:10.409Z,62.66
2022-08-26T20:46:18.770Z,62.98
2022-08-26T20:51:23.415Z,63.37
2022-08-26T20:56:25.769Z,63.76
2022-08-26T21:01:30.710Z,64.48
2022-08-26T21:06:33.870Z,65.18
2022-08-26T21:11:37.303Z,65.90
2022-08-26T21:16:40.303Z,66.40
2022-08-26T21:21:44.309Z,66.90
2022-08-26T21:26:47.148Z,67.37
2022-08-26T21:47:41.088Z,67.44
2022-08-26T21:52:43.725Z,67.53
2022-08-26T21:57:46.120Z,67.64
2022-08-26T22:02:50.089Z,67.73
2022-08-26T22:07:53.039Z,68.36
2022-08-26T22:12:55.884Z,68.33
2022-08-26T22:17:58.804Z,68.90
2022-08-26T22:23:01.949Z,69.21
2022-08-26T22:28:04.412Z,69.72
2022-08-26T22:33:06.773Z,70.04
2022-08-26T22:38:09.600Z,70.17
2022-08-26T22:43:12.835Z,70.32
2022-08-26T22:48:17.771Z,70.57
2022-08-26T22:53:20.131Z,70.62
2022-08-26T22:58:28.037Z,70.94
2022-08-26T23:03:33.717Z,71.48
2022-08-26T23:08:36.596Z,71.97
2022-08-26T23:13:39.206Z,72.23
2022-08-26T23:18:41.818Z,72.94
2022-08-26T23:23:45.008Z,72.66
2022-08-26T23:28:47.370Z,72.44
2022-08-26T23:34:08.449Z,72.57
2022-08-26T23:39:11.117Z,72.60
2022-08-26T23:44:13.516Z,72.98
2022-08-26T23:49:15.989Z,73.08
2022-08-26T23:54:19.551Z,73.13
2022-08-26T23:59:22.162Z,73.00
